Time,TemperatureF,DewpointF,PressureIn,WindDirection,WindDirectionDegrees,WindSpeedMPH,WindSpeedGustMPH,Humidity,HourlyPrecipIn,Conditions,Clouds,dailyrainin,SoftwareType,DateUTC
2013-11-17 00:01:00,46.8,45.1,30.26,WNW,302,0.0,0.0,94,0.00,,,0.08,meteohub,2013-11-17 05:01:00,
2013-11-17 00:02:00,46.8,45.1,30.26,WNW,302,0.0,0.0,94,0.00,,,0.08,meteohub,2013-11-17 05:02:00,
2013-11-17 00:05:00,46.8,45.1,30.26,WNW,302,0.0,0.0,94,0.00,,,0.08,meteohub,2013-11-17 05:05:00,
2013-11-17 00:06:00,46.8,45.1,30.26,WNW,302,0.0,0.0,94,0.00,,,0.08,meteohub,2013-11-17 05:06:00,
2013-11-17 00:09:00,46.8,45.1,30.26,WNW,302,0.0,0.0,94,0.00,,,0.00,meteohub,2013-11-17 05:09:00,
2013-11-17 00:14:00,46.8,45.1,30.26,WNW,302,0.0,0.0,94,0.00,,,0.00,meteohub,2013-11-17 05:14:00,
2013-11-17 00:20:00,46.8,45.1,30.26,WNW,302,0.0,0.0,94,0.00,,,0.00,meteohub,2013-11-17 05:20:00,
2013-11-17 00:25:00,46.8,45.1,30.26,WNW,302,0.0,0.0,94,0.00,,,0.00,meteohub,2013-11-17 05:25:00,
2013-11-17 00:30:00,46.8,45.1,30.25,WNW,302,0.0,0.0,94,0.00,,,0.00,meteohub,2013-11-17 05:30:00,
2013-11-17 00:36:00,46.9,45.3,30.25,WNW,302,0.0,0.0,94,0.00,,,0.00,meteohub,2013-11-17 05:36:00,
2013-11-17 00:41:00,47.5,46.0,30.25,WNW,302,0.0,0.0,95,0.00,,,0.00,meteohub,2013-11-17 05:41:00,
2013-11-17 00:46:00,48.0,46.6,30.25,WNW,302,0.0,0.0,95,0.00,,,0.00,meteohub,2013-11-17 05:46:00,
2013-11-17 00:51:00,48.4,46.9,30.25,WNW,302,0.0,0.0,95,0.00,,,0.00,meteohub,2013-11-17 05:51:00,
2013-11-17 00:57:00,48.7,47.1,30.25,WNW,302,0.0,1.0,94,0.00,,,0.00,meteohub,2013-11-17 05:57:00,
2013-11-17 01:02:00,48.9,47.3,30.25,WNW,302,0.0,1.0,94,0.00,,,0.00,meteohub,2013-11-17 06:02:00,
2013-11-17 01:06:00,48.9,47.3,30.25,WNW,302,0.0,1.0,94,0.00,,,0.00,meteohub,2013-11-17 06:06:00,
2013-11-17 01:11:00,49.3,47.7,30.25,WNW,302,0.0,0.0,94,0.00,,,0.00,meteohub,2013-11-17 06:11:00,
2013-11-17 01:17:00,49.3,47.7,30.25,WNW,302,0.0,0.0,94,0.00,,,0.00,meteohub,2013-11-17 06:17:00,
2013-11-17 01:21:00,49.5,47.8,30.25,WNW,302,0.0,0.0,94,0.00,,,0.00,meteohub,2013-11-17 06:21:00,
2013-11-17 01:27:00,49.5,47.8,30.25,WNW,302,0.0,0.0,94,0.00,,,0.00,meteohub,2013-11-17 06:27:00,
2013-11-17 01:31:00,49.6,48.0,30.25,WNW,302,0.0,0.0,94,0.00,,,0.00,meteohub,2013-11-17 06:31:00,
2013-11-17 01:36:00,49.6,47.7,30.25,WNW,302,0.0,0.0,93,0.00,,,0.00,meteohub,2013-11-17 06:36:00,
2013-11-17 01:41:00,49.6,47.7,30.25,WNW,302,0.0,0.0,93,0.00,,,0.00,meteohub,2013-11-17 06:41:00,
2013-11-17 01:46:00,49.8,47.8,30.24,WNW,302,0.0,0.0,93,0.00,,,0.00,meteohub,2013-11-17 06:46:00,
2013-11-17 01:51:00,49.8,47.8,30.24,WNW,302,0.0,0.0,93,0.00,,,0.00,meteohub,2013-11-17 06:51:00,
2013-11-17 01:57:00,49.8,47.8,30.24,WNW,302,0.0,0.0,93,0.00,,,0.00,meteohub,2013-11-17 06:57:00,
2013-11-17 02:02:00,50.0,48.0,30.24,WNW,302,0.0,0.0,93,0.00,,,0.00,meteohub,2013-11-17 07:02:00,
2013-11-17 02:07:00,50.0,48.0,30.24,WNW,302,0.0,0.0,93,0.00,,,0.00,meteohub,2013-11-17 07:07:00,
2013-11-17 02:12:00,50.2,48.2,30.24,WNW,302,0.0,0.0,93,0.00,,,0.00,meteohub,2013-11-17 07:12:00,
2013-11-17 02:17:00,50.2,48.2,30.24,WNW,302,0.0,0.0,93,0.00,,,0.00,meteohub,2013-11-17 07:17:00,
2013-11-17 02:21:00,50.4,48.4,30.24,WNW,302,0.0,0.0,93,0.00,,,0.00,meteohub,2013-11-17 07:21:00,
2013-11-17 02:26:00,50.4,48.4,30.23,WNW,302,0.0,0.0,93,0.00,,,0.00,meteohub,2013-11-17 07:26:00,
2013-11-17 02:31:00,50.4,48.2,30.24,WNW,302,0.0,0.0,92,0.00,,,0.00,meteohub,2013-11-17 07:31:00,
2013-11-17 02:37:00,50.4,48.2,30.23,WNW,302,0.0,0.0,92,0.00,,,0.00,meteohub,2013-11-17 07:37:00,
2013-11-17 02:41:00,50.5,48.6,30.23,WNW,302,0.0,0.0,93,0.00,,,0.00,meteohub,2013-11-17 07:41:00,
2013-11-17 02:46:00,50.5,48.4,30.23,WNW,302,0.0,0.0,92,0.00,,,0.00,meteohub,2013-11-17 07:46:00,
2013-11-17 02:51:00,50.7,48.6,30.23,WNW,302,0.0,0.0,92,0.00,,,0.00,meteohub,2013-11-17 07:51:00,
2013-11-17 02:56:00,50.7,48.6,30.23,WNW,302,0.0,0.0,92,0.00,,,0.00,meteohub,2013-11-17 07:56:00,
2013-11-17 03:02:00,50.7,48.6,30.23,WNW,302,0.0,0.0,92,0.00,,,0.00,meteohub,2013-11-17 08:02:00,
2013-11-17 03:07:00,50.7,48.6,30.23,WNW,302,0.0,0.0,92,0.00,,,0.00,meteohub,2013-11-17 08:07:00,
2013-11-17 03:11:00,50.7,48.6,30.22,WNW,302,0.0,0.0,92,0.00,,,0.00,meteohub,2013-11-17 08:11:00,
2013-11-17 03:17:00,50.9,48.7,30.22,WNW,302,0.0,0.0,92,0.00,,,0.00,meteohub,2013-11-17 08:17:00,
2013-11-17 03:21:00,50.9,48.7,30.22,WNW,302,0.0,0.0,92,0.00,,,0.00,meteohub,2013-11-17 08:21:00,
2013-11-17 03:27:00,51.1,48.9,30.22,WNW,302,0.0,0.0,92,0.00,,,0.00,meteohub,2013-11-17 08:27:00,
2013-11-17 03:31:00,51.1,48.9,30.22,WNW,302,0.0,0.0,92,0.00,,,0.00,meteohub,2013-11-17 08:31:00,
2013-11-17 03:36:00,51.1,48.9,30.22,WNW,300,0.0,0.0,92,0.00,,,0.00,meteohub,2013-11-17 08:36:00,
2013-11-17 03:41:00,51.1,48.9,30.22,WNW,300,0.0,0.0,92,0.00,,,0.00,meteohub,2013-11-17 08:41:00,
2013-11-17 03:47:00,51.3,49.1,30.22,WNW,300,0.0,0.0,92,0.00,,,0.00,meteohub,2013-11-17 08:47:00,
2013-11-17 03:51:00,51.3,49.1,30.22,WNW,300,0.0,0.0,92,0.00,,,0.00,meteohub,2013-11-17 08:51:00,
2013-11-17 03:57:00,51.3,49.1,30.22,WNW,297,0.0,0.0,92,0.00,,,0.00,meteohub,2013-11-17 08:57:00,
2013-11-17 04:01:00,51.3,48.7,30.22,WNW,296,0.0,0.0,91,0.00,,,0.00,meteohub,2013-11-17 09:01:00,
2013-11-17 04:06:00,51.4,48.9,30.22,WNW,283,0.0,0.0,91,0.00,,,0.00,meteohub,2013-11-17 09:06:00,
2013-11-17 04:12:00,51.4,48.9,30.22,West,266,0.0,0.0,91,0.00,,,0.00,meteohub,2013-11-17 09:12:00,
2013-11-17 04:17:00,51.4,48.9,30.22,West,266,0.0,0.0,91,0.00,,,0.00,meteohub,2013-11-17 09:17:00,
2013-11-17 04:21:00,51.6,49.1,30.22,West,259,0.0,0.0,91,0.00,,,0.00,meteohub,2013-11-17 09:21:00,
2013-11-17 04:26:00,51.6,49.1,30.21,WSW,248,0.0,0.0,91,0.00,,,0.00,meteohub,2013-11-17 09:26:00,
2013-11-17 04:31:00,51.6,49.1,30.22,WSW,247,0.0,1.0,91,0.00,,,0.00,meteohub,2013-11-17 09:31:00,
2013-11-17 04:36:00,51.6,49.1,30.21,WSW,246,1.0,1.0,91,0.00,,,0.00,meteohub,2013-11-17 09:36:00,
2013-11-17 04:42:00,51.6,49.1,30.21,WSW,245,0.0,1.0,91,0.00,,,0.00,meteohub,2013-11-17 09:42:00,
2013-11-17 04:47:00,51.8,49.3,30.21,WSW,245,0.0,1.0,91,0.00,,,0.00,meteohub,2013-11-17 09:47:00,
2013-11-17 04:52:00,51.8,48.9,30.21,WSW,245,0.0,2.0,90,0.00,,,0.00,meteohub,2013-11-17 09:52:00,
2013-11-17 04:57:00,51.8,48.9,30.21,SW,236,1.0,2.0,90,0.00,,,0.00,meteohub,2013-11-17 09:57:00,
2013-11-17 05:02:00,52.0,49.1,30.21,SW,226,0.0,2.0,90,0.00,,,0.00,meteohub,2013-11-17 10:02:00,
2013-11-17 05:07:00,52.0,49.1,30.21,SW,226,0.0,2.0,90,0.00,,,0.00,meteohub,2013-11-17 10:07:00,
2013-11-17 05:12:00,52.0,49.1,30.21,SW,226,0.0,2.0,90,0.00,,,0.00,meteohub,2013-11-17 10:12:00,
2013-11-17 05:17:00,52.0,49.1,30.21,SW,226,0.0,2.0,90,0.00,,,0.00,meteohub,2013-11-17 10:17:00,
2013-11-17 05:22:00,52.2,49.3,30.21,SW,226,0.0,0.0,90,0.00,,,0.00,meteohub,2013-11-17 10:22:00,
2013-11-17 05:28:00,52.2,49.3,30.21,SW,226,0.0,0.0,90,0.00,,,0.00,meteohub,2013-11-17 10:28:00,
2013-11-17 05:33:00,52.2,49.3,30.21,SW,226,0.0,0.0,90,0.00,,,0.00,meteohub,2013-11-17 10:33:00,
2013-11-17 05:38:00,52.2,49.3,30.21,SW,226,0.0,0.0,90,0.00,,,0.00,meteohub,2013-11-17 10:38:00,
2013-11-17 05:43:00,52.2,49.3,30.20,SW,226,0.0,0.0,90,0.00,,,0.00,meteohub,2013-11-17 10:43:00,
2013-11-17 05:49:00,52.2,49.3,30.20,SW,226,0.0,0.0,90,0.00,,,0.00,meteohub,2013-11-17 10:49:00,
2013-11-17 05:54:00,52.2,49.3,30.20,SW,226,0.0,0.0,90,0.00,,,0.00,meteohub,2013-11-17 10:54:00,
2013-11-17 05:59:00,52.2,49.3,30.20,SW,226,0.0,0.0,90,0.00,,,0.00,meteohub,2013-11-17 10:59:00,
2013-11-17 06:05:00,52.2,49.3,30.19,SW,226,0.0,0.0,90,0.00,,,0.00,meteohub,2013-11-17 11:05:00,
2013-11-17 06:10:00,52.2,49.3,30.19,SW,226,0.0,0.0,90,0.00,,,0.00,meteohub,2013-11-17 11:10:00,
2013-11-17 06:15:00,52.3,49.5,30.19,SSE,148,0.0,0.0,90,0.00,,,0.00,meteohub,2013-11-17 11:15:00,
2013-11-17 06:20:00,52.3,49.5,30.20,SSE,148,0.0,0.0,90,0.00,,,0.00,meteohub,2013-11-17 11:20:00,
2013-11-17 06:26:00,52.3,49.8,30.20,SE,145,0.0,0.0,91,0.00,,,0.00,meteohub,2013-11-17 11:26:00,
2013-11-17 06:31:00,52.3,49.8,30.20,SE,145,0.0,0.0,91,0.00,,,0.00,meteohub,2013-11-17 11:31:00,
2013-11-17 06:36:00,52.3,49.8,30.19,SE,145,0.0,0.0,91,0.00,,,0.00,meteohub,2013-11-17 11:36:00,
2013-11-17 06:41:00,52.5,50.0,30.20,SSE,164,0.0,0.0,91,0.00,,,0.00,meteohub,2013-11-17 11:41:00,
2013-11-17 06:47:00,52.5,50.0,30.20,SE,125,0.0,0.0,91,0.00,,,0.00,meteohub,2013-11-17 11:47:00,
2013-11-17 06:52:00,52.5,50.0,30.19,SE,125,0.0,0.0,91,0.00,,,0.00,meteohub,2013-11-17 11:52:00,
2013-11-17 06:57:00,52.5,50.2,30.19,SE,125,0.0,2.0,92,0.00,,,0.00,meteohub,2013-11-17 11:57:00,
2013-11-17 07:02:00,52.7,50.4,30.19,SE,126,0.0,2.0,92,0.00,,,0.00,meteohub,2013-11-17 12:02:00,
2013-11-17 07:07:00,52.9,50.5,30.19,SE,125,0.0,2.0,92,0.00,,,0.00,meteohub,2013-11-17 12:07:00,
2013-11-17 07:12:00,52.9,50.5,30.19,SE,125,0.0,2.0,92,0.00,,,0.00,meteohub,2013-11-17 12:12:00,
2013-11-17 07:17:00,52.9,50.5,30.19,SE,125,0.0,0.0,92,0.00,,,0.00,meteohub,2013-11-17 12:17:00,
2013-11-17 07:22:00,53.1,50.7,30.18,SE,126,0.0,0.0,92,0.00,,,0.00,meteohub,2013-11-17 12:22:00,
2013-11-17 07:27:00,53.2,50.9,30.18,SE,125,0.0,0.0,92,0.00,,,0.00,meteohub,2013-11-17 12:27:00,
2013-11-17 07:31:00,53.4,51.1,30.18,SE,127,0.0,0.0,92,0.00,,,0.00,meteohub,2013-11-17 12:31:00,
2013-11-17 07:37:00,53.6,51.3,30.19,SE,127,0.0,0.0,92,0.00,,,0.00,meteohub,2013-11-17 12:37:00,
2013-11-17 07:42:00,53.6,51.3,30.19,SE,127,0.0,0.0,92,0.00,,,0.00,meteohub,2013-11-17 12:42:00,
2013-11-17 07:47:00,53.8,51.4,30.19,SE,127,0.0,0.0,92,0.00,,,0.00,meteohub,2013-11-17 12:47:00,
2013-11-17 07:52:00,54.0,51.6,30.19,SE,127,0.0,0.0,92,0.00,,,0.00,meteohub,2013-11-17 12:52:00,
2013-11-17 07:57:00,54.0,51.6,30.19,SE,127,0.0,0.0,92,0.00,,,0.00,meteohub,2013-11-17 12:57:00,
2013-11-17 08:02:00,54.1,51.8,30.19,SE,127,0.0,0.0,92,0.00,,,0.00,meteohub,2013-11-17 13:02:00,
2013-11-17 08:07:00,54.1,51.8,30.19,SE,127,0.0,0.0,92,0.00,,,0.00,meteohub,2013-11-17 13:07:00,
2013-11-17 08:12:00,54.3,52.0,30.18,SE,127,0.0,0.0,92,0.00,,,0.00,meteohub,2013-11-17 13:12:00,
2013-11-17 08:17:00,54.5,52.2,30.18,SE,129,0.0,0.0,92,0.00,,,0.00,meteohub,2013-11-17 13:17:00,
2013-11-17 08:22:00,54.7,52.3,30.18,SE,130,0.0,0.0,92,0.00,,,0.00,meteohub,2013-11-17 13:22:00,
2013-11-17 08:27:00,55.0,52.7,30.18,SE,129,0.0,0.0,92,0.00,,,0.00,meteohub,2013-11-17 13:27:00,
2013-11-17 08:32:00,55.2,52.9,30.18,SE,130,0.0,0.0,92,0.00,,,0.00,meteohub,2013-11-17 13:32:00,
2013-11-17 08:37:00,55.6,53.2,30.18,SSE,167,0.0,0.0,92,0.00,,,0.00,meteohub,2013-11-17 13:37:00,
2013-11-17 08:43:00,55.9,53.6,30.18,SSE,167,0.0,0.0,92,0.00,,,0.00,meteohub,2013-11-17 13:43:00,
2013-11-17 08:48:00,56.1,53.8,30.18,SSE,164,0.0,0.0,92,0.00,,,0.00,meteohub,2013-11-17 13:48:00,
2013-11-17 08:53:00,56.3,54.0,30.18,SSE,164,0.0,0.0,92,0.00,,,0.00,meteohub,2013-11-17 13:53:00,
2013-11-17 08:58:00,56.5,54.1,30.18,SSE,164,0.0,0.0,92,0.00,,,0.00,meteohub,2013-11-17 13:58:00,
2013-11-17 09:04:00,56.7,54.3,30.18,SSE,163,0.0,0.0,92,0.00,,,0.00,meteohub,2013-11-17 14:04:00,
2013-11-17 09:09:00,56.8,54.5,30.18,SSE,164,0.0,0.0,92,0.00,,,0.00,meteohub,2013-11-17 14:09:00,
2013-11-17 09:14:00,57.2,54.9,30.18,SSE,163,0.0,0.0,92,0.00,,,0.00,meteohub,2013-11-17 14:14:00,
2013-11-17 09:19:00,57.6,55.2,30.18,SSE,163,0.0,0.0,92,0.00,,,0.00,meteohub,2013-11-17 14:19:00,
2013-11-17 09:25:00,57.9,55.6,30.18,SSE,163,0.0,0.0,92,0.00,,,0.00,meteohub,2013-11-17 14:25:00,
2013-11-17 09:30:00,58.3,55.9,30.18,SSE,167,1.0,0.0,92,0.00,,,0.00,meteohub,2013-11-17 14:30:00,
2013-11-17 09:35:00,58.5,56.1,30.17,ESE,104,0.0,0.0,92,0.00,,,0.00,meteohub,2013-11-17 14:35:00,
2013-11-17 09:40:00,58.8,56.1,30.17,SSE,163,0.0,0.0,91,0.00,,,0.00,meteohub,2013-11-17 14:40:00,
2013-11-17 09:46:00,59.0,56.3,30.17,SSE,162,0.0,2.0,91,0.00,,,0.00,meteohub,2013-11-17 14:46:00,
2013-11-17 09:51:00,59.2,56.5,30.17,SSE,162,0.0,2.0,91,0.00,,,0.00,meteohub,2013-11-17 14:51:00,
2013-11-17 09:56:00,59.4,56.7,30.17,SSE,162,0.0,2.0,91,0.00,,,0.00,meteohub,2013-11-17 14:56:00,
2013-11-17 10:01:00,59.5,56.8,30.17,SE,145,0.0,0.0,91,0.00,,,0.00,meteohub,2013-11-17 15:01:00,
2013-11-17 10:07:00,59.7,57.0,30.18,SE,146,0.0,0.0,91,0.00,,,0.00,meteohub,2013-11-17 15:07:00,
2013-11-17 10:12:00,59.9,57.0,30.17,SE,143,0.0,0.0,90,0.00,,,0.00,meteohub,2013-11-17 15:12:00,
2013-11-17 10:16:00,60.1,57.2,30.17,SE,143,0.0,0.0,90,0.00,,,0.00,meteohub,2013-11-17 15:16:00,
2013-11-17 10:22:00,60.1,57.2,30.17,SE,143,0.0,0.0,90,0.00,,,0.00,meteohub,2013-11-17 15:22:00,
2013-11-17 10:27:00,60.1,57.2,30.17,ESE,122,0.0,0.0,90,0.00,,,0.00,meteohub,2013-11-17 15:27:00,
2013-11-17 10:32:00,60.1,57.2,30.17,ESE,122,0.0,0.0,90,0.00,,,0.00,meteohub,2013-11-17 15:32:00,
2013-11-17 10:37:00,60.1,57.2,30.16,ESE,121,0.0,0.0,90,0.00,,,0.00,meteohub,2013-11-17 15:37:00,
2013-11-17 10:41:00,60.3,57.4,30.16,ESE,123,0.0,0.0,90,0.00,,,0.00,meteohub,2013-11-17 15:41:00,
2013-11-17 10:46:00,60.3,57.6,30.16,SSE,155,0.0,0.0,91,0.00,,,0.00,meteohub,2013-11-17 15:46:00,
2013-11-17 10:52:00,60.4,57.7,30.15,SSE,155,0.0,0.0,91,0.00,,,0.00,meteohub,2013-11-17 15:52:00,
2013-11-17 10:57:00,60.4,57.7,30.14,SSE,165,0.0,0.0,91,0.00,,,0.00,meteohub,2013-11-17 15:57:00,
2013-11-17 11:02:00,60.6,57.9,30.15,SE,132,1.0,0.0,91,0.00,,,0.00,meteohub,2013-11-17 16:02:00,
2013-11-17 11:07:00,60.4,57.7,30.14,SE,134,0.0,2.0,91,0.00,,,0.00,meteohub,2013-11-17 16:07:00,
2013-11-17 11:12:00,60.3,57.6,30.14,SE,129,1.0,2.0,91,0.00,,,0.00,meteohub,2013-11-17 16:12:00,
2013-11-17 11:18:00,60.1,57.7,30.14,SSE,159,1.0,2.0,92,0.00,,,0.00,meteohub,2013-11-17 16:18:00,
2013-11-17 11:23:00,59.7,57.4,30.14,ESE,116,1.0,4.0,92,0.00,,,0.00,meteohub,2013-11-17 16:23:00,
2013-11-17 11:28:00,59.7,57.4,30.14,SSE,148,1.0,4.0,92,0.00,,,0.00,meteohub,2013-11-17 16:28:00,
2013-11-17 11:33:00,59.5,57.2,30.13,East,79,0.0,4.0,92,0.00,,,0.00,meteohub,2013-11-17 16:33:00,
2013-11-17 11:39:00,59.5,57.6,30.13,SE,138,1.0,4.0,93,0.00,,,0.00,meteohub,2013-11-17 16:39:00,
2013-11-17 11:44:00,59.5,57.6,30.12,SSE,149,1.0,2.0,93,0.00,,,0.00,meteohub,2013-11-17 16:44:00,
2013-11-17 11:49:00,59.5,57.6,30.12,SE,134,0.0,2.0,93,0.00,,,0.00,meteohub,2013-11-17 16:49:00,
2013-11-17 11:54:00,59.5,57.7,30.12,SE,141,0.0,3.0,94,0.00,,,0.00,meteohub,2013-11-17 16:54:00,
2013-11-17 11:59:00,59.4,57.4,30.12,East,89,1.0,3.0,93,0.00,,,0.00,meteohub,2013-11-17 16:59:00,
2013-11-17 12:05:00,59.4,57.4,30.12,ENE,75,1.0,3.0,93,0.00,,,0.00,meteohub,2013-11-17 17:05:00,
2013-11-17 12:10:00,59.2,57.4,30.12,SSE,155,0.0,3.0,94,0.00,,,0.00,meteohub,2013-11-17 17:10:00,
2013-11-17 12:15:00,59.2,57.4,30.11,SE,141,0.0,3.0,94,0.00,,,0.00,meteohub,2013-11-17 17:15:00,
2013-11-17 12:21:00,59.2,57.4,30.11,SSW,211,1.0,3.0,94,0.00,,,0.00,meteohub,2013-11-17 17:21:00,
2013-11-17 12:26:00,59.2,57.4,30.11,ESE,105,1.0,3.0,94,0.00,,,0.00,meteohub,2013-11-17 17:26:00,
2013-11-17 12:31:00,59.2,57.4,30.11,SSE,148,0.0,3.0,94,0.00,,,0.00,meteohub,2013-11-17 17:31:00,
2013-11-17 12:36:00,59.2,57.4,30.11,SSE,152,0.0,3.0,94,0.00,,,0.00,meteohub,2013-11-17 17:36:00,
2013-11-17 12:41:00,59.2,57.4,30.10,SE,124,1.0,3.0,94,0.00,,,0.00,meteohub,2013-11-17 17:41:00,
2013-11-17 12:47:00,59.2,57.4,30.09,SE,139,1.0,3.0,94,0.00,,,0.00,meteohub,2013-11-17 17:47:00,
2013-11-17 12:52:00,59.2,57.4,30.09,SSE,157,0.0,3.0,94,0.00,,,0.00,meteohub,2013-11-17 17:52:00,
2013-11-17 12:57:00,59.2,57.4,30.09,South,176,1.0,2.0,94,0.00,,,0.00,meteohub,2013-11-17 17:57:00,
2013-11-17 13:01:00,59.2,57.4,30.09,SE,128,1.0,2.0,94,0.00,,,0.00,meteohub,2013-11-17 18:01:00,
2013-11-17 13:06:00,59.2,57.7,30.09,SSE,152,1.0,2.0,95,0.00,,,0.00,meteohub,2013-11-17 18:06:00,
2013-11-17 13:12:00,59.2,57.7,30.09,SE,125,2.0,2.0,95,0.00,,,0.00,meteohub,2013-11-17 18:12:00,
2013-11-17 13:17:00,59.2,57.7,30.08,SSW,209,1.0,3.0,95,0.00,,,0.00,meteohub,2013-11-17 18:17:00,
2013-11-17 13:22:00,59.2,57.7,30.08,SSE,158,1.0,3.0,95,0.00,,,0.01,meteohub,2013-11-17 18:22:00,
2013-11-17 13:27:00,59.2,57.7,30.08,South,170,1.0,3.0,95,0.00,,,0.01,meteohub,2013-11-17 18:27:00,
2013-11-17 13:32:00,59.2,57.7,30.07,South,191,0.0,3.0,95,0.01,,,0.01,meteohub,2013-11-17 18:32:00,
2013-11-17 13:37:00,59.0,57.6,30.06,ESE,112,0.0,3.0,95,0.01,,,0.01,meteohub,2013-11-17 18:37:00,
2013-11-17 13:42:00,58.8,57.4,30.06,SE,133,1.0,3.0,95,0.01,,,0.01,meteohub,2013-11-17 18:42:00,
2013-11-17 13:47:00,59.0,57.6,30.06,ESE,117,1.0,3.0,95,0.01,,,0.01,meteohub,2013-11-17 18:47:00,
2013-11-17 13:51:00,58.8,57.4,30.06,ESE,118,0.0,3.0,95,0.01,,,0.01,meteohub,2013-11-17 18:51:00,
2013-11-17 13:56:00,58.8,57.4,30.06,SSE,159,0.0,3.0,95,0.01,,,0.08,meteohub,2013-11-17 18:56:00,
2013-11-17 14:02:00,58.6,57.2,30.05,SE,141,0.0,3.0,95,0.01,,,0.01,meteohub,2013-11-17 19:02:00,
2013-11-17 14:07:00,58.8,57.7,30.06,SE,124,0.0,2.0,96,0.01,,,0.01,meteohub,2013-11-17 19:07:00,
2013-11-17 14:12:00,58.8,57.7,30.06,SE,128,1.0,2.0,96,0.01,,,0.01,meteohub,2013-11-17 19:12:00,
2013-11-17 14:17:00,58.8,57.7,30.06,East,91,0.0,2.0,96,0.01,,,0.01,meteohub,2013-11-17 19:17:00,
2013-11-17 14:22:00,58.6,57.6,30.06,SSE,159,0.0,4.0,96,0.00,,,0.01,meteohub,2013-11-17 19:22:00,
2013-11-17 14:28:00,58.6,57.6,30.06,SE,134,1.0,4.0,96,0.00,,,0.01,meteohub,2013-11-17 19:28:00,
2013-11-17 14:33:00,58.6,57.6,30.05,ESE,114,0.0,4.0,96,0.00,,,0.01,meteohub,2013-11-17 19:33:00,
2013-11-17 14:38:00,58.6,57.6,30.05,ESE,111,0.0,4.0,96,0.01,,,0.01,meteohub,2013-11-17 19:38:00,
2013-11-17 14:43:00,58.6,57.6,30.05,SE,136,0.0,3.0,96,0.01,,,0.01,meteohub,2013-11-17 19:43:00,
2013-11-17 14:49:00,58.6,57.6,30.05,East,91,0.0,3.0,96,0.01,,,0.02,meteohub,2013-11-17 19:49:00,
2013-11-17 14:54:00,58.6,57.6,30.06,SE,142,0.0,2.0,96,0.01,,,0.02,meteohub,2013-11-17 19:54:00,
2013-11-17 14:59:00,58.5,57.4,30.05,ESE,107,0.0,2.0,96,0.01,,,0.02,meteohub,2013-11-17 19:59:00,
2013-11-17 15:04:00,58.5,57.4,30.05,SE,126,0.0,2.0,96,0.01,,,0.02,meteohub,2013-11-17 20:04:00,
2013-11-17 15:10:00,58.5,57.4,30.05,SE,124,0.0,2.0,96,0.02,,,0.02,meteohub,2013-11-17 20:10:00,
2013-11-17 15:15:00,58.5,57.4,30.04,SE,146,0.0,2.0,96,0.02,,,0.02,meteohub,2013-11-17 20:15:00,
2013-11-17 15:20:00,58.5,57.4,30.04,SSE,148,0.0,2.0,96,0.02,,,0.02,meteohub,2013-11-17 20:20:00,
2013-11-17 15:25:00,58.5,57.4,30.04,ESE,115,0.0,2.0,96,0.02,,,0.03,meteohub,2013-11-17 20:25:00,
2013-11-17 15:31:00,58.5,57.4,30.03,SE,133,0.0,1.0,96,0.02,,,0.03,meteohub,2013-11-17 20:31:00,
2013-11-17 15:36:00,58.3,57.2,30.03,SE,126,0.0,1.0,96,0.02,,,0.03,meteohub,2013-11-17 20:36:00,
2013-11-17 15:41:00,58.3,57.2,30.03,SSE,150,0.0,1.0,96,0.02,,,0.03,meteohub,2013-11-17 20:41:00,
2013-11-17 15:46:00,57.9,56.8,30.03,SSE,165,1.0,3.0,96,0.01,,,0.03,meteohub,2013-11-17 20:46:00,
2013-11-17 15:51:00,57.7,56.7,30.02,SSW,205,2.0,3.0,96,0.01,,,0.03,meteohub,2013-11-17 20:51:00,
2013-11-17 15:57:00,57.7,56.7,30.02,ESE,117,0.0,3.0,96,0.01,,,0.03,meteohub,2013-11-17 20:57:00,
2013-11-17 16:01:00,57.7,56.7,30.02,SSE,152,0.0,3.0,96,0.01,,,0.03,meteohub,2013-11-17 21:01:00,
2013-11-17 16:07:00,57.6,56.5,30.02,SSE,152,0.0,3.0,96,0.01,,,0.03,meteohub,2013-11-17 21:07:00,
2013-11-17 16:11:00,57.6,56.5,30.02,SE,131,0.0,2.0,96,0.01,,,0.03,meteohub,2013-11-17 21:11:00,
2013-11-17 16:16:00,57.4,56.3,30.01,ESE,104,0.0,2.0,96,0.01,,,0.03,meteohub,2013-11-17 21:16:00,
2013-11-17 16:21:00,57.4,56.3,30.01,SE,128,0.0,3.0,96,0.00,,,0.03,meteohub,2013-11-17 21:21:00,
2013-11-17 16:26:00,57.2,56.1,30.01,ESE,112,0.0,3.0,96,0.00,,,0.03,meteohub,2013-11-17 21:26:00,
2013-11-17 16:31:00,57.2,56.1,30.01,SSE,155,0.0,3.0,96,0.00,,,0.03,meteohub,2013-11-17 21:31:00,
2013-11-17 16:37:00,57.2,56.1,30.00,SSE,148,0.0,3.0,96,0.00,,,0.03,meteohub,2013-11-17 21:37:00,
2013-11-17 16:41:00,57.2,56.1,30.00,SE,146,0.0,3.0,96,0.00,,,0.03,meteohub,2013-11-17 21:41:00,
2013-11-17 16:46:00,57.2,56.1,30.00,SSE,148,0.0,3.0,96,0.00,,,0.03,meteohub,2013-11-17 21:46:00,
2013-11-17 16:51:00,57.2,56.3,30.00,SE,146,0.0,0.0,97,0.00,,,0.03,meteohub,2013-11-17 21:51:00,
2013-11-17 16:56:00,57.4,56.5,30.00,SSE,152,0.0,0.0,97,0.00,,,0.03,meteohub,2013-11-17 21:56:00,
2013-11-17 17:02:00,57.4,56.5,30.00,SE,141,0.0,1.0,97,0.00,,,0.03,meteohub,2013-11-17 22:02:00,
2013-11-17 17:07:00,57.4,56.5,30.00,SE,141,0.0,1.0,97,0.00,,,0.03,meteohub,2013-11-17 22:07:00,
2013-11-17 17:12:00,57.4,56.5,29.99,SE,141,0.0,0.0,97,0.00,,,0.03,meteohub,2013-11-17 22:12:00,
2013-11-17 17:18:00,57.4,56.5,29.99,South,169,0.0,0.0,97,0.00,,,0.03,meteohub,2013-11-17 22:18:00,
2013-11-17 17:23:00,57.2,56.3,29.99,South,169,0.0,0.0,97,0.00,,,0.03,meteohub,2013-11-17 22:23:00,
2013-11-17 17:28:00,57.0,55.9,29.99,SE,145,0.0,0.0,96,0.00,,,0.03,meteohub,2013-11-17 22:28:00,
2013-11-17 17:33:00,56.8,55.8,29.99,ESE,120,0.0,0.0,96,0.00,,,0.03,meteohub,2013-11-17 22:33:00,
2013-11-17 17:38:00,56.7,55.6,29.98,SW,226,0.0,0.0,96,0.00,,,0.03,meteohub,2013-11-17 22:38:00,
2013-11-17 17:44:00,56.5,55.4,29.98,SE,142,0.0,2.0,96,0.00,,,0.03,meteohub,2013-11-17 22:44:00,
2013-11-17 17:49:00,56.3,55.2,29.97,ESE,120,1.0,4.0,96,0.00,,,0.03,meteohub,2013-11-17 22:49:00,
2013-11-17 17:54:00,56.1,55.0,29.97,ESE,122,2.0,4.0,96,0.00,,,0.03,meteohub,2013-11-17 22:54:00,
2013-11-17 17:59:00,56.1,55.2,29.97,SE,143,2.0,3.0,97,0.00,,,0.03,meteohub,2013-11-17 22:59:00,
2013-11-17 18:04:00,56.1,55.2,29.96,East,89,3.0,3.0,97,0.00,,,0.03,meteohub,2013-11-17 23:04:00,
2013-11-17 18:10:00,56.1,55.2,29.96,SE,130,1.0,3.0,97,0.00,,,0.03,meteohub,2013-11-17 23:10:00,
2013-11-17 18:15:00,56.1,55.2,29.96,ESE,102,2.0,4.0,97,0.00,,,0.03,meteohub,2013-11-17 23:15:00,
2013-11-17 18:20:00,55.9,55.0,29.96,SE,134,1.0,4.0,97,0.00,,,0.03,meteohub,2013-11-17 23:20:00,
2013-11-17 18:25:00,55.8,54.9,29.96,SE,131,0.0,4.0,97,0.00,,,0.03,meteohub,2013-11-17 23:25:00,
2013-11-17 18:31:00,55.6,54.7,29.96,SE,146,0.0,4.0,97,0.00,,,0.03,meteohub,2013-11-17 23:31:00,
2013-11-17 18:36:00,55.6,54.7,29.96,SSW,195,0.0,4.0,97,0.00,,,0.03,meteohub,2013-11-17 23:36:00,
2013-11-17 18:41:00,55.6,54.7,29.95,South,184,1.0,2.0,97,0.00,,,0.03,meteohub,2013-11-17 23:41:00,
2013-11-17 18:46:00,55.6,54.7,29.95,SSE,160,0.0,2.0,97,0.00,,,0.03,meteohub,2013-11-17 23:46:00,
2013-11-17 18:52:00,55.2,54.3,29.96,SSE,153,0.0,2.0,97,0.00,,,0.03,meteohub,2013-11-17 23:52:00,
2013-11-17 18:57:00,55.2,54.3,29.96,SE,143,0.0,2.0,97,0.00,,,0.03,meteohub,2013-11-17 23:57:00,
2013-11-17 19:01:00,55.0,54.1,29.96,East,96,0.0,2.0,97,0.00,,,0.03,meteohub,2013-11-18 00:01:00,
2013-11-17 19:07:00,55.0,54.1,29.96,ESE,113,0.0,2.0,97,0.00,,,0.03,meteohub,2013-11-18 00:07:00,
2013-11-17 19:11:00,55.0,54.1,29.96,ESE,113,0.0,1.0,97,0.00,,,0.03,meteohub,2013-11-18 00:11:00,
2013-11-17 19:16:00,55.0,54.1,29.96,ESE,113,0.0,1.0,97,0.00,,,0.04,meteohub,2013-11-18 00:16:00,
2013-11-17 19:22:00,55.0,54.1,29.96,ESE,113,0.0,1.0,97,0.01,,,0.04,meteohub,2013-11-18 00:22:00,
2013-11-17 19:26:00,55.2,54.3,29.95,ESE,113,0.0,1.0,97,0.01,,,0.04,meteohub,2013-11-18 00:26:00,
2013-11-17 19:31:00,55.2,54.3,29.95,ESE,113,0.0,1.0,97,0.01,,,0.04,meteohub,2013-11-18 00:31:00,
2013-11-17 19:37:00,55.2,54.3,29.95,ESE,117,0.0,1.0,97,0.01,,,0.04,meteohub,2013-11-18 00:37:00,
2013-11-17 19:41:00,55.0,54.1,29.94,SE,126,0.0,1.0,97,0.01,,,0.04,meteohub,2013-11-18 00:41:00,
2013-11-17 19:47:00,54.9,54.0,29.94,SE,143,0.0,1.0,97,0.01,,,0.04,meteohub,2013-11-18 00:47:00,
2013-11-17 19:52:00,54.7,53.8,29.94,SE,142,0.0,2.0,97,0.01,,,0.04,meteohub,2013-11-18 00:52:00,
2013-11-17 19:56:00,54.5,53.6,29.94,SE,143,0.0,2.0,97,0.01,,,0.04,meteohub,2013-11-18 00:56:00,
2013-11-17 20:01:00,54.3,53.4,29.94,SE,134,0.0,2.0,97,0.01,,,0.04,meteohub,2013-11-18 01:01:00,
2013-11-17 20:06:00,54.3,53.4,29.94,SE,134,0.0,2.0,97,0.01,,,0.04,meteohub,2013-11-18 01:06:00,
2013-11-17 20:12:00,54.3,53.4,29.93,SE,134,0.0,2.0,97,0.01,,,0.04,meteohub,2013-11-18 01:12:00,
2013-11-17 20:16:00,54.3,53.4,29.93,SE,139,0.0,2.0,97,0.01,,,0.04,meteohub,2013-11-18 01:16:00,
2013-11-17 20:21:00,54.5,53.6,29.92,SE,138,2.0,2.0,97,0.00,,,0.04,meteohub,2013-11-18 01:21:00,
2013-11-17 20:27:00,54.5,53.6,29.92,ESE,112,0.0,1.0,97,0.00,,,0.04,meteohub,2013-11-18 01:27:00,
2013-11-17 20:31:00,54.3,53.4,29.92,ENE,77,1.0,3.0,97,0.00,,,0.04,meteohub,2013-11-18 01:31:00,
2013-11-17 20:36:00,54.3,53.4,29.92,ESE,122,0.0,3.0,97,0.00,,,0.04,meteohub,2013-11-18 01:36:00,
2013-11-17 20:42:00,54.5,53.6,29.92,ESE,122,0.0,2.0,97,0.00,,,0.04,meteohub,2013-11-18 01:42:00,
2013-11-17 20:46:00,54.7,53.8,29.92,SSE,151,1.0,2.0,97,0.00,,,0.04,meteohub,2013-11-18 01:46:00,
2013-11-17 20:51:00,54.7,53.8,29.91,East,98,1.0,2.0,97,0.00,,,0.04,meteohub,2013-11-18 01:51:00,
2013-11-17 20:57:00,54.7,53.8,29.91,South,191,0.0,2.0,97,0.00,,,0.04,meteohub,2013-11-18 01:57:00,
2013-11-17 21:01:00,54.7,53.8,29.91,SSE,159,0.0,4.0,97,0.00,,,0.04,meteohub,2013-11-18 02:01:00,
2013-11-17 21:07:00,54.7,53.8,29.91,East,94,0.0,4.0,97,0.00,,,0.04,meteohub,2013-11-18 02:07:00,
2013-11-17 21:12:00,54.7,53.8,29.90,South,176,0.0,3.0,97,0.00,,,0.04,meteohub,2013-11-18 02:12:00,
2013-11-17 21:16:00,54.7,53.8,29.89,South,169,0.0,3.0,97,0.00,,,0.04,meteohub,2013-11-18 02:16:00,
2013-11-17 21:22:00,54.7,53.8,29.89,SSE,159,0.0,2.0,97,0.00,,,0.04,meteohub,2013-11-18 02:22:00,
2013-11-17 21:27:00,54.5,53.6,29.89,SE,139,0.0,2.0,97,0.00,,,0.04,meteohub,2013-11-18 02:27:00,
2013-11-17 21:32:00,54.5,53.6,29.89,ESE,119,0.0,2.0,97,0.00,,,0.04,meteohub,2013-11-18 02:32:00,
2013-11-17 21:37:00,54.7,53.8,29.88,SE,130,1.0,2.0,97,0.00,,,0.04,meteohub,2013-11-18 02:37:00,
2013-11-17 21:41:00,54.5,53.6,29.87,SSE,148,0.0,3.0,97,0.00,,,0.04,meteohub,2013-11-18 02:41:00,
2013-11-17 21:46:00,54.5,53.6,29.86,East,89,1.0,3.0,97,0.00,,,0.04,meteohub,2013-11-18 02:46:00,
2013-11-17 21:51:00,54.7,53.8,29.86,SSE,160,0.0,3.0,97,0.00,,,0.04,meteohub,2013-11-18 02:51:00,
2013-11-17 21:57:00,54.7,53.8,29.86,SE,146,0.0,3.0,97,0.00,,,0.04,meteohub,2013-11-18 02:57:00,
2013-11-17 22:01:00,54.7,53.8,29.85,SE,141,0.0,3.0,97,0.00,,,0.04,meteohub,2013-11-18 03:01:00,
2013-11-17 22:07:00,54.9,54.0,29.85,SSE,163,1.0,3.0,97,0.00,,,0.04,meteohub,2013-11-18 03:07:00,
2013-11-17 22:12:00,54.9,54.0,29.85,SE,126,0.0,2.0,97,0.00,,,0.04,meteohub,2013-11-18 03:12:00,
2013-11-17 22:16:00,54.9,54.0,29.86,SE,138,0.0,2.0,97,0.00,,,0.04,meteohub,2013-11-18 03:16:00,
2013-11-17 22:21:00,54.9,54.0,29.86,SE,128,0.0,2.0,97,0.00,,,0.04,meteohub,2013-11-18 03:21:00,
2013-11-17 22:26:00,54.9,54.0,29.85,SE,129,0.0,2.0,97,0.00,,,0.04,meteohub,2013-11-18 03:26:00,
2013-11-17 22:31:00,55.0,54.1,29.84,SE,146,0.0,0.0,97,0.00,,,0.04,meteohub,2013-11-18 03:31:00,
2013-11-17 22:37:00,55.2,54.3,29.84,SSE,158,0.0,0.0,97,0.00,,,0.04,meteohub,2013-11-18 03:37:00,
2013-11-17 22:41:00,55.6,54.7,29.83,SE,146,0.0,2.0,97,0.00,,,0.04,meteohub,2013-11-18 03:41:00,
2013-11-17 22:46:00,55.8,54.9,29.83,SSE,150,0.0,2.0,97,0.00,,,0.04,meteohub,2013-11-18 03:46:00,
2013-11-17 22:51:00,55.8,54.9,29.83,SSE,160,0.0,3.0,97,0.00,,,0.04,meteohub,2013-11-18 03:51:00,
2013-11-17 22:56:00,55.6,54.7,29.82,SSE,159,0.0,3.0,97,0.00,,,0.04,meteohub,2013-11-18 03:56:00,
2013-11-17 23:01:00,55.4,54.5,29.82,South,170,0.0,3.0,97,0.00,,,0.04,meteohub,2013-11-18 04:01:00,
2013-11-17 23:07:00,55.6,54.7,29.81,SE,130,1.0,3.0,97,0.00,,,0.04,meteohub,2013-11-18 04:07:00,
2013-11-17 23:11:00,55.4,54.5,29.81,SSW,198,1.0,2.0,97,0.00,,,0.04,meteohub,2013-11-18 04:11:00,
2013-11-17 23:16:00,55.4,54.5,29.81,SSE,155,0.0,2.0,97,0.00,,,0.04,meteohub,2013-11-18 04:16:00,
2013-11-17 23:21:00,55.4,54.5,29.81,SE,134,0.0,2.0,97,0.00,,,0.04,meteohub,2013-11-18 04:21:00,
2013-11-17 23:27:00,55.4,54.5,29.80,ESE,114,0.0,2.0,97,0.00,,,0.04,meteohub,2013-11-18 04:27:00,
2013-11-17 23:31:00,55.4,54.5,29.80,ESE,115,0.0,1.0,97,0.00,,,0.04,meteohub,2013-11-18 04:31:00,
2013-11-17 23:36:00,55.4,54.5,29.80,SE,136,0.0,1.0,97,0.00,,,0.04,meteohub,2013-11-18 04:36:00,
2013-11-17 23:41:00,55.6,54.7,29.79,SE,134,0.0,0.0,97,0.00,,,0.04,meteohub,2013-11-18 04:41:00,
2013-11-17 23:47:00,55.8,54.9,29.79,ESE,119,0.0,0.0,97,0.00,,,0.04,meteohub,2013-11-18 04:47:00,
2013-11-17 23:52:00,55.9,55.0,29.78,SE,129,0.0,0.0,97,0.00,,,0.04,meteohub,2013-11-18 04:52:00,
2013-11-17 23:56:00,56.1,55.2,29.79,East,97,0.0,0.0,97,0.00,,,0.04,meteohub,2013-11-18 04:56:00,